Time;durP1;ratioP1;P1;durP2;ratioP2;P2;SDS_P1;SDS_P2;PMS_P1;PMS_P2;Temp;Humidity;BMP_temperature;BMP_pressure;BME280_temperature;BME280_humidity;BME280_pressure;Samples;Min_cycle;Max_cycle;Signal;HPM_P1;HPM_P2
2022/10/03 00:02:27;;;;;;;;;13.00;10.00;;;24.77;100738.70;;;;117830;1187;25514;-56
2022/10/03 00:05:31;;;;;;;;;10.50;8.50;;;24.77;100736.72;;;;117816;1188;25207;-62
2022/10/03 00:08:18;;;;;;;;;12.33;9.00;;;24.80;100736.85;;;;117492;1188;25559;-62
2022/10/03 00:11:26;;;;;;;;;14.25;6.50;;;24.80;100735.95;;;;117790;1188;25169;-63
2022/10/03 00:13:57;;;;;;;;;9.67;8.00;;;24.81;100739.77;;;;117768;1187;25119;-54
2022/10/03 00:16:54;;;;;;;;;10.75;8.00;;;24.79;100743.05;;;;117455;1188;25071;-55
2022/10/03 00:19:47;;;;;;;;;10.33;7.33;;;24.73;100740.21;;;;117744;1187;25334;-53
2022/10/03 00:22:27;;;;;;;;;12.00;5.75;;;24.80;100737.16;;;;117791;1188;25492;-55
2022/10/03 00:26:00;;;;;;;;;12.00;8.75;;;24.73;100734.55;;;;117845;1188;25037;-55
2022/10/03 00:28:55;;;;;;;;;16.00;8.00;;;24.81;100734.23;;;;117020;1194;25362;-54
2022/10/03 00:31:41;;;;;;;;;16.33;6.33;;;24.79;100730.98;;;;117011;1194;25312;-54
2022/10/03 00:34:43;;;;;;;;;11.00;6.00;;;24.76;100729.77;;;;117858;1187;25448;-55
2022/10/03 00:37:17;;;;;;;;;11.00;5.25;;;24.76;100725.64;;;;117858;1188;25070;-54
2022/10/03 00:40:10;;;;;;;;;10.33;5.67;;;24.70;100721.95;;;;117859;1188;25033;-53
2022/10/03 00:42:51;;;;;;;;;8.00;5.00;;;24.66;100717.23;;;;117434;1188;25002;-56
2022/10/03 00:45:41;;;;;;;;;7.00;6.50;;;24.62;100723.91;;;;117865;1188;24974;-54
2022/10/03 00:48:23;;;;;;;;;5.50;5.00;;;24.61;100722.43;;;;117890;1186;25171;-54
2022/10/03 00:51:16;;;;;;;;;6.00;6.00;;;24.64;100721.21;;;;117862;1187;25724;-54
2022/10/03 00:54:15;;;;;;;;;11.00;5.25;;;24.66;100713.77;;;;117862;1188;24813;-54
2022/10/03 00:57:02;;;;;;;;;11.00;7.00;;;24.71;100707.75;;;;117829;1188;25079;-54
2022/10/03 00:59:45;;;;;;;;;7.67;4.33;;;24.62;100704.30;;;;117863;1187;25209;-54
2022/10/03 01:02:29;;;;;;;;;5.25;3.50;;;24.57;100704.84;;;;117841;1187;24891;-55
2022/10/03 01:05:37;;;;;;;;;13.33;7.00;;;24.55;100712.59;;;;117839;1187;25133;-53
2022/10/03 01:08:08;;;;;;;;;8.25;5.00;;;24.58;100713.21;;;;117804;1187;25127;-55
2022/10/03 01:10:49;;;;;;;;;5.50;5.50;;;24.54;100708.32;;;;117866;1186;24984;-54
2022/10/03 01:13:48;;;;;;;;;8.67;6.33;;;24.54;100705.96;;;;117864;1188;25158;-54
2022/10/03 01:16:54;;;;;;;;;6.25;6.00;;;24.57;100698.05;;;;117847;1188;24970;-54
2022/10/03 01:19:46;;;;;;;;;12.50;4.50;;;24.51;100691.99;;;;117862;1188;24697;-54
2022/10/03 01:23:00;;;;;;;;;8.33;6.00;;;24.45;100690.02;;;;117859;1188;25550;-54
2022/10/03 01:25:32;;;;;;;;;9.50;6.25;;;24.43;100683.52;;;;117867;1188;25471;-54
2022/10/03 01:31:08;;;;;;;;;12.25;6.00;;;24.53;100686.20;;;;117780;1189;25591;-54
2022/10/03 01:33:43;;;;;;;;;10.00;6.00;;;24.46;100680.96;;;;117826;1187;25277;-54
2022/10/03 01:36:11;;;;;;;;;8.25;5.00;;;24.44;100683.44;;;;117779;1187;25190;-55
2022/10/03 01:38:50;;;;;;;;;8.75;6.25;;;24.47;100683.50;;;;117768;1188;24926;-54
2022/10/03 01:41:43;;;;;;;;;11.00;5.75;;;24.49;100678.61;;;;117791;1186;25148;-54
2022/10/03 01:44:23;;;;;;;;;10.00;4.00;;;24.46;100677.03;;;;117880;1186;25582;-54
2022/10/03 01:46:58;;;;;;;;;7.50;3.25;;;24.50;100678.36;;;;117876;1188;25675;-54
2022/10/03 01:50:05;;;;;;;;;7.67;6.00;;;24.48;100677.67;;;;117873;1188;25613;-54
2022/10/03 01:52:44;;;;;;;;;8.25;6.25;;;24.50;100678.05;;;;117780;1188;25265;-62
2022/10/03 01:55:44;;;;;;;;;5.50;4.50;;;24.55;100678.52;;;;117755;1188;24929;-63
2022/10/03 01:58:25;;;;;;;;;5.33;5.33;;;24.58;100682.96;;;;117794;1186;24840;-59
2022/10/03 02:01:06;;;;;;;;;6.00;4.75;;;24.51;100695.27;;;;117509;1188;25345;-55
2022/10/03 02:04:00;;;;;;;;;6.25;5.00;;;24.52;100689.39;;;;117872;1187;24970;-54
2022/10/03 02:06:31;;;;;;;;;4.00;4.00;;;24.53;100691.02;;;;117440;1189;25252;-54
2022/10/03 02:09:28;;;;;;;;;5.00;3.75;;;24.50;100694.95;;;;117689;1188;25514;-54
2022/10/03 02:12:03;;;;;;;;;5.75;5.00;;;24.54;100710.99;;;;117837;1188;25074;-54
2022/10/03 02:14:55;;;;;;;;;6.00;3.33;;;24.53;100707.27;;;;117897;1188;24888;-54
2022/10/03 02:17:29;;;;;;;;;6.00;4.75;;;24.51;100702.23;;;;117892;1188;25636;-54
2022/10/03 02:20:23;;;;;;;;;5.75;4.50;;;24.44;100704.55;;;;117874;1186;25181;-54
2022/10/03 02:22:54;;;;;;;;;10.50;6.00;;;24.42;100696.83;;;;117817;1187;25030;-54
2022/10/03 02:26:02;;;;;;;;;5.00;4.00;;;24.42;100695.25;;;;117520;1189;25639;-54
2022/10/03 02:28:55;;;;;;;;;6.75;4.75;;;24.44;100680.03;;;;117601;1188;25000;-54
2022/10/03 02:31:31;;;;;;;;;3.75;3.00;;;24.46;100685.75;;;;117677;1188;25156;-54
2022/10/03 02:34:17;;;;;;;;;7.33;5.00;;;24.45;100686.26;;;;117817;1189;25544;-55
2022/10/03 02:37:23;;;;;;;;;4.00;4.00;;;24.45;100691.58;;;;117789;1188;24957;-54
2022/10/03 02:39:52;;;;;;;;;7.50;6.50;;;24.46;100699.93;;;;117689;1188;24903;-54
2022/10/03 02:42:57;;;;;;;;;8.75;6.00;;;24.45;100697.22;;;;117869;1188;24853;-55
2022/10/03 02:45:40;;;;;;;;;7.00;5.00;;;24.44;100698.77;;;;117832;1188;25604;-54
2022/10/03 02:48:35;;;;;;;;;5.50;4.00;;;24.46;100696.56;;;;117775;1187;24917;-54
2022/10/03 02:51:23;;;;;;;;;4.67;4.67;;;24.40;100698.13;;;;117523;1189;24840;-54
2022/10/03 02:53:57;;;;;;;;;7.00;4.33;;;24.56;100691.13;;;;117772;1188;25738;-54
2022/10/03 02:56:52;;;;;;;;;6.75;4.75;;;24.46;100690.20;;;;117751;1188;25047;-54
2022/10/03 02:59:29;;;;;;;;;5.00;3.00;;;24.39;100689.96;;;;117752;1188;24843;-54
2022/10/03 03:02:28;;;;;;;;;7.00;5.00;;;24.45;100683.67;;;;117740;1186;24861;-54
2022/10/03 03:05:21;;;;;;;;;5.00;4.75;;;24.44;100688.31;;;;117707;1187;24948;-54
2022/10/03 03:08:11;;;;;;;;;6.67;3.00;;;24.48;100685.55;;;;117787;1187;25548;-54
2022/10/03 03:11:30;;;;;;;;;3.00;1.33;;;24.40;100692.58;;;;117782;1188;25531;-54
2022/10/03 03:14:23;;;;;;;;;7.25;6.75;;;24.38;100688.27;;;;117100;1191;25402;-53
2022/10/03 03:17:09;;;;;;;;;6.50;6.50;;;24.42;100687.80;;;;117101;1193;25157;-55
2022/10/03 03:19:54;;;;;;;;;5.00;5.00;;;24.36;100684.69;;;;117710;1186;25590;-53
2022/10/03 03:22:52;;;;;;;;;4.00;4.00;;;24.42;100681.67;;;;117708;1187;25075;-54
2022/10/03 03:25:41;;;;;;;;;9.00;4.50;;;24.45;100685.73;;;;117686;1188;25601;-54
2022/10/03 03:28:37;;;;;;;;;6.75;5.00;;;24.35;100675.00;;;;117662;1188;24883;-59
2022/10/03 03:31:15;;;;;;;;;5.00;3.00;;;24.46;100669.92;;;;117711;1187;25365;-60
2022/10/03 03:34:06;;;;;;;;;7.00;5.33;;;24.47;100676.78;;;;117751;1188;25537;-59
2022/10/03 03:36:59;;;;;;;;;7.00;6.00;;;24.46;100674.77;;;;117447;1187;25505;-57
2022/10/03 03:39:55;;;;;;;;;7.25;5.00;;;24.49;100671.27;;;;117814;1186;24920;-60
2022/10/03 03:42:46;;;;;;;;;8.25;7.50;;;24.48;100673.19;;;;117466;1189;24851;-55
2022/10/03 03:45:22;;;;;;;;;8.50;5.50;;;24.39;100678.67;;;;117708;1186;25606;-56
2022/10/03 03:48:13;;;;;;;;;10.75;5.50;;;24.42;100685.99;;;;117751;1188;25723;-56
2022/10/03 03:51:18;;;;;;;;;10.75;6.50;;;24.52;100686.83;;;;117707;1188;25720;-56
2022/10/03 03:54:18;;;;;;;;;8.25;4.75;;;24.58;100688.95;;;;117499;1186;25225;-55
2022/10/03 03:57:04;;;;;;;;;7.50;6.50;;;24.39;100690.55;;;;117769;1188;25486;-56
2022/10/03 04:00:02;;;;;;;;;6.25;5.75;;;24.26;100680.97;;;;117829;1187;24859;-55
2022/10/03 04:02:57;;;;;;;;;10.00;6.00;;;24.40;100666.50;;;;117517;1189;24761;-57
2022/10/03 04:05:56;;;;;;;;;6.00;4.33;;;24.37;100655.98;;;;117715;1187;24872;-56
2022/10/03 04:08:58;;;;;;;;;8.00;5.00;;;24.35;100665.45;;;;117777;1186;25721;-55
2022/10/03 04:11:38;;;;;;;;;6.75;4.00;;;24.40;100668.31;;;;117505;1189;25034;-55
2022/10/03 04:14:19;;;;;;;;;6.00;5.00;;;24.50;100665.41;;;;117717;1188;25464;-55
2022/10/03 04:19:56;;;;;;;;;6.00;6.00;;;24.59;100655.45;;;;117830;1187;25210;-58
2022/10/03 04:22:33;;;;;;;;;5.75;5.50;;;24.44;100665.11;;;;117775;1188;24964;-56
2022/10/03 04:25:19;;;;;;;;;7.33;4.67;;;24.47;100674.48;;;;117820;1186;24990;-57
2022/10/03 04:28:06;;;;;;;;;5.25;5.00;;;24.50;100683.08;;;;117522;1189;25191;-56
2022/10/03 04:30:59;;;;;;;;;5.00;5.00;;;24.59;100681.69;;;;117756;1188;25391;-59
2022/10/03 04:33:40;;;;;;;;;12.00;9.25;;;24.56;100679.41;;;;117807;1188;25126;-55
2022/10/03 04:36:50;;;;;;;;;2.67;2.67;;;24.66;100676.98;;;;117814;1187;25595;-57
2022/10/03 04:39:25;;;;;;;;;6.33;4.00;;;24.76;100670.80;;;;117052;1194;25556;-55
2022/10/03 04:42:02;;;;;;;;;4.00;4.00;;;24.62;100673.95;;;;116985;1194;25047;-56
2022/10/03 04:44:56;;;;;;;;;5.50;5.00;;;24.63;100675.25;;;;117270;1189;25393;-58
2022/10/03 04:47:42;;;;;;;;;4.00;4.00;;;24.73;100676.16;;;;117867;1188;25423;-56
2022/10/03 04:50:22;;;;;;;;;5.00;4.50;;;24.67;100679.63;;;;117474;1189;25555;-61
2022/10/03 04:53:20;;;;;;;;;8.00;6.75;;;24.52;100681.80;;;;117866;1188;25216;-57
2022/10/03 04:56:11;;;;;;;;;7.50;6.25;;;24.60;100673.41;;;;117493;1189;24922;-56
2022/10/03 04:58:47;;;;;;;;;5.50;5.50;;;24.53;100671.06;;;;117506;1189;24984;-56
2022/10/03 05:01:21;;;;;;;;;8.00;7.00;;;24.63;100665.48;;;;117840;1188;25025;-57
2022/10/03 05:04:01;;;;;;;;;4.00;4.00;;;24.68;100666.11;;;;117519;1189;24984;-56
2022/10/03 05:06:47;;;;;;;;;4.67;4.67;;;24.58;100671.48;;;;117787;1188;25157;-58
2022/10/03 05:09:44;;;;;;;;;4.67;4.67;;;24.67;100677.90;;;;117799;1188;24681;-62
2022/10/03 05:12:38;;;;;;;;;4.75;4.75;;;24.81;100680.71;;;;117803;1187;25375;-63
2022/10/03 05:15:09;;;;;;;;;4.25;4.25;;;24.94;100680.75;;;;117883;1186;25038;-64
2022/10/03 05:17:57;;;;;;;;;4.00;2.50;;;24.99;100677.66;;;;117785;1187;25080;-62
2022/10/03 05:20:51;;;;;;;;;4.00;4.00;;;25.02;100676.21;;;;117877;1188;25740;-63
2022/10/03 05:23:52;;;;;;;;;4.50;4.00;;;25.06;100674.82;;;;117821;1188;25578;-58
2022/10/03 05:26:29;;;;;;;;;7.00;5.25;;;25.11;100672.64;;;;117871;1187;25738;-59
2022/10/03 05:29:37;;;;;;;;;2.75;2.75;;;25.17;100668.05;;;;117842;1187;24762;-62
2022/10/03 05:32:31;;;;;;;;;4.50;4.50;;;25.23;100663.24;;;;117825;1188;24784;-58
2022/10/03 05:35:17;;;;;;;;;7.50;4.75;;;25.25;100659.55;;;;117436;1190;25230;-57
2022/10/03 05:38:11;;;;;;;;;5.75;5.00;;;25.31;100656.05;;;;117475;1188;25685;-58
2022/10/03 05:40:43;;;;;;;;;7.67;5.00;;;25.39;100651.78;;;;117842;1187;24762;-59
2022/10/03 05:43:34;;;;;;;;;10.00;5.33;;;25.42;100651.02;;;;117828;1187;25120;-58
2022/10/03 05:46:28;;;;;;;;;4.00;3.00;;;25.46;100660.21;;;;117734;1188;25516;-57
2022/10/03 05:49:11;;;;;;;;;6.00;4.75;;;25.48;100660.97;;;;117690;1188;25135;-58
2022/10/03 05:51:48;;;;;;;;;5.75;5.00;;;25.49;100659.60;;;;117461;1190;24974;-60
2022/10/03 05:54:26;;;;;;;;;6.50;5.00;;;25.50;100657.64;;;;117848;1187;24779;-59
2022/10/03 05:57:13;;;;;;;;;5.75;4.50;;;25.50;100661.27;;;;117443;1189;25531;-58
2022/10/03 05:59:47;;;;;;;;;5.75;5.75;;;25.53;100658.23;;;;117822;1187;24841;-58
2022/10/03 06:02:24;;;;;;;;;6.75;4.25;;;25.56;100656.15;;;;117447;1189;25240;-58
2022/10/03 06:05:12;;;;;;;;;5.25;4.00;;;25.58;100657.10;;;;117795;1187;25435;-59
2022/10/03 06:07:57;;;;;;;;;5.33;3.67;;;25.65;100657.44;;;;117807;1187;24722;-61
2022/10/03 06:10:32;;;;;;;;;3.50;2.50;;;25.71;100658.21;;;;117872;1188;25515;-60
2022/10/03 06:13:06;;;;;;;;;7.33;4.67;;;25.73;100657.36;;;;117868;1187;24807;-60
2022/10/03 06:15:36;;;;;;;;;4.50;4.50;;;25.74;100660.47;;;;117408;1189;24844;-62
2022/10/03 06:18:07;;;;;;;;;4.00;4.00;;;25.72;100662.04;;;;117886;1188;24689;-62
2022/10/03 06:20:50;;;;;;;;;3.75;3.00;;;25.73;100658.64;;;;117414;1189;25159;-63
2022/10/03 06:23:37;;;;;;;;;3.75;3.75;;;25.78;100655.29;;;;117469;1188;25020;-60
2022/10/03 06:26:20;;;;;;;;;4.33;3.33;;;25.82;100659.35;;;;117434;1189;24808;-61
2022/10/03 06:29:07;;;;;;;;;6.00;2.75;;;25.83;100663.13;;;;117876;1187;24988;-61
2022/10/03 06:31:58;;;;;;;;;4.50;3.75;;;25.88;100665.95;;;;117877;1187;24905;-59
2022/10/03 06:35:04;;;;;;;;;5.50;4.50;;;25.94;100671.31;;;;117795;1188;25558;-59
2022/10/03 06:38:01;;;;;;;;;8.33;3.00;;;26.03;100669.98;;;;117837;1186;25460;-59
2022/10/03 06:40:48;;;;;;;;;7.00;3.00;;;26.09;100663.44;;;;117059;1190;24740;-59
2022/10/03 06:43:50;;;;;;;;;4.00;2.50;;;26.15;100658.66;;;;117846;1188;25591;-59
2022/10/03 06:46:35;;;;;;;;;6.00;6.00;;;26.18;100651.06;;;;117862;1188;24740;-60
2022/10/03 06:49:25;;;;;;;;;3.75;3.75;;;26.19;100651.52;;;;117498;1187;25505;-60
2022/10/03 06:52:07;;;;;;;;;5.67;3.67;;;26.22;100655.32;;;;117691;1187;25597;-59
2022/10/03 06:54:35;;;;;;;;;5.50;4.50;;;26.25;100665.48;;;;117782;1187;24900;-60
2022/10/03 06:57:38;;;;;;;;;6.75;2.75;;;26.27;100667.64;;;;117513;1189;25526;-60
2022/10/03 07:00:17;;;;;;;;;5.67;3.00;;;26.32;100669.77;;;;117486;1189;24700;-60
2022/10/03 07:03:04;;;;;;;;;5.00;3.25;;;26.35;100670.79;;;;117502;1188;24799;-61
2022/10/03 07:06:01;;;;;;;;;5.25;3.00;;;26.37;100671.30;;;;117391;1189;25223;-60
2022/10/03 07:08:42;;;;;;;;;4.33;4.33;;;26.42;100671.52;;;;117386;1189;25617;-60
2022/10/03 07:11:45;;;;;;;;;3.25;3.25;;;26.47;100668.80;;;;117511;1187;24701;-61
2022/10/03 07:14:25;;;;;;;;;5.33;4.00;;;26.52;100659.27;;;;117461;1189;24766;-63
2022/10/03 07:17:21;;;;;;;;;4.00;3.50;;;26.51;100657.35;;;;117444;1188;25673;-60
2022/10/03 07:19:56;;;;;;;;;2.75;2.50;;;26.56;100650.75;;;;117534;1189;24737;-61
2022/10/03 07:22:48;;;;;;;;;4.75;4.25;;;26.59;100648.33;;;;117475;1188;25768;-60
2022/10/03 07:25:31;;;;;;;;;8.50;5.00;;;26.61;100646.50;;;;117493;1188;24766;-60
2022/10/03 07:28:32;;;;;;;;;4.75;4.25;;;26.63;100645.88;;;;117513;1189;26012;-60
2022/10/03 07:31:32;;;;;;;;;3.33;3.00;;;26.68;100643.59;;;;117507;1188;24951;-68
2022/10/03 07:34:22;;;;;;;;;1.25;1.25;;;26.74;100644.07;;;;117494;1187;25881;-60
2022/10/03 07:40:21;;;;;;;;;6.75;2.25;;;26.84;100643.09;;;;117613;1188;25313;-59
2022/10/03 07:43:16;;;;;;;;;2.25;2.00;;;26.85;100640.14;;;;117510;1188;25354;-59
2022/10/03 07:45:59;;;;;;;;;2.67;2.67;;;26.85;100638.62;;;;117452;1189;25866;-60
2022/10/03 07:48:34;;;;;;;;;5.50;3.50;;;26.89;100635.51;;;;117793;1187;25206;-61
2022/10/03 07:51:12;;;;;;;;;2.75;2.50;;;26.92;100631.52;;;;117458;1188;24913;-61
2022/10/03 07:54:01;;;;;;;;;2.50;2.50;;;26.93;100633.34;;;;117542;1189;25219;-59
2022/10/03 07:56:51;;;;;;;;;3.33;3.00;;;26.99;100632.02;;;;117443;1188;24727;-60
2022/10/03 07:59:44;;;;;;;;;9.00;3.75;;;27.01;100631.00;;;;117498;1188;25008;-66
2022/10/03 08:02:33;;;;;;;;;4.00;4.00;;;27.01;100625.15;;;;117782;1188;25515;-66
2022/10/03 08:05:16;;;;;;;;;2.67;2.67;;;27.00;100621.69;;;;117451;1189;24892;-64
2022/10/03 08:08:20;;;;;;;;;3.25;2.50;;;27.03;100618.71;;;;117464;1188;25496;-67
2022/10/03 08:11:15;;;;;;;;;5.50;4.00;;;27.08;100625.04;;;;117924;1187;25231;-62
2022/10/03 08:14:02;;;;;;;;;5.25;4.50;;;27.08;100620.30;;;;117441;1188;24926;-59
2022/10/03 08:17:07;;;;;;;;;2.67;2.67;;;27.09;100620.13;;;;117518;1188;25129;-61
2022/10/03 08:20:00;;;;;;;;;4.33;4.33;;;27.12;100618.59;;;;117489;1189;25314;-61
2022/10/03 08:23:05;;;;;;;;;5.75;4.25;;;27.13;100618.94;;;;117484;1187;24677;-68
2022/10/03 08:25:56;;;;;;;;;2.25;2.25;;;27.16;100614.71;;;;117783;1188;25547;-69
2022/10/03 08:28:24;;;;;;;;;3.25;3.00;;;27.17;100610.33;;;;117505;1189;25612;-66
2022/10/03 08:31:14;;;;;;;;;3.00;3.00;;;27.18;100605.97;;;;117513;1188;25418;-66
2022/10/03 08:34:07;;;;;;;;;3.50;2.25;;;27.19;100606.45;;;;117405;1190;25719;-62
2022/10/03 08:36:54;;;;;;;;;3.75;2.75;;;27.22;100607.61;;;;117433;1190;25108;-59
2022/10/03 08:39:37;;;;;;;;;3.00;3.00;;;27.23;100601.46;;;;117439;1190;25669;-59
2022/10/03 08:42:24;;;;;;;;;5.00;4.00;;;27.23;100600.87;;;;117402;1190;24827;-59
2022/10/03 08:45:17;;;;;;;;;2.25;2.00;;;27.27;100597.79;;;;117436;1189;24701;-60
2022/10/03 08:47:51;;;;;;;;;2.50;2.50;;;27.29;100603.23;;;;117470;1188;24951;-60
2022/10/03 08:51:04;;;;;;;;;5.75;4.75;;;27.32;100601.80;;;;117516;1189;25596;-58
2022/10/03 08:53:52;;;;;;;;;4.00;3.33;;;27.38;100600.70;;;;117065;1194;25044;-59
2022/10/03 08:56:26;;;;;;;;;3.67;3.67;;;27.41;100598.27;;;;117055;1194;25207;-60
2022/10/03 08:59:13;;;;;;;;;6.25;3.75;;;27.38;100590.90;;;;117270;1189;25645;-60
2022/10/03 09:01:44;;;;;;;;;3.00;3.00;;;27.39;100590.40;;;;117437;1188;25277;-63
2022/10/03 09:04:38;;;;;;;;;3.25;3.00;;;27.41;100590.80;;;;117440;1189;25454;-60
2022/10/03 09:07:22;;;;;;;;;5.00;4.00;;;27.42;100581.98;;;;117509;1188;25507;-60
2022/10/03 09:10:25;;;;;;;;;4.00;3.67;;;27.42;100584.83;;;;117846;1187;25248;-61
2022/10/03 09:13:19;;;;;;;;;3.75;3.75;;;27.40;100584.31;;;;117480;1189;25092;-60
2022/10/03 09:16:02;;;;;;;;;5.25;4.25;;;27.36;100582.38;;;;117415;1189;25483;-60
2022/10/03 09:18:50;;;;;;;;;4.67;4.33;;;27.36;100581.79;;;;117415;1190;25664;-58
2022/10/03 09:21:39;;;;;;;;;4.50;4.50;;;27.35;100584.27;;;;117478;1189;25239;-59
2022/10/03 09:24:35;;;;;;;;;2.25;2.25;;;27.33;100582.15;;;;117463;1188;25333;-59
2022/10/03 09:27:17;;;;;;;;;2.00;2.00;;;27.31;100585.69;;;;117448;1188;24834;-59
2022/10/03 09:30:23;;;;;;;;;2.50;2.00;;;27.29;100580.43;;;;117422;1189;25772;-59
2022/10/03 09:33:10;;;;;;;;;2.00;2.00;;;27.30;100580.20;;;;117496;1189;25162;-62
2022/10/03 09:36:03;;;;;;;;;6.50;3.00;;;27.28;100578.27;;;;117695;1187;25525;-60
2022/10/03 09:39:10;;;;;;;;;3.75;3.75;;;27.21;100576.70;;;;117761;1188;25589;-61
2022/10/03 09:42:14;;;;;;;;;5.00;3.00;;;27.29;100575.00;;;;117767;1187;25143;-60
2022/10/03 09:44:54;;;;;;;;;7.00;3.50;;;27.32;100566.13;;;;117343;1188;25058;-60
2022/10/03 09:48:04;;;;;;;;;2.00;2.00;;;27.32;100562.94;;;;117413;1189;25749;-59
2022/10/03 09:50:54;;;;;;;;;3.00;3.00;;;27.30;100563.78;;;;117455;1189;25482;-65
2022/10/03 09:53:50;;;;;;;;;4.50;3.00;;;27.26;100558.42;;;;117501;1189;25756;-59
2022/10/03 09:56:24;;;;;;;;;5.33;3.00;;;27.22;100557.39;;;;117491;1189;25021;-59
2022/10/03 09:59:12;;;;;;;;;10.00;4.00;;;27.21;100553.75;;;;117493;1189;25255;-59
2022/10/03 10:01:56;;;;;;;;;8.67;7.67;;;27.17;100553.98;;;;117863;1187;25351;-60
2022/10/03 10:04:40;;;;;;;;;14.00;10.25;;;27.16;100552.89;;;;117825;1188;25171;-61
2022/10/03 10:08:00;;;;;;;;;14.00;10.00;;;27.16;100547.51;;;;117506;1188;25142;-62
2022/10/03 10:10:59;;;;;;;;;10.75;8.50;;;27.15;100549.72;;;;117471;1188;25019;-62
2022/10/03 10:13:53;;;;;;;;;9.00;7.67;;;27.11;100548.59;;;;117486;1188;24694;-61
2022/10/03 10:17:08;;;;;;;;;11.25;8.00;;;27.12;100552.13;;;;117532;1189;25111;-61
2022/10/03 10:20:08;;;;;;;;;12.33;7.00;;;27.11;100552.02;;;;117488;1187;25118;-61
2022/10/03 10:23:03;;;;;;;;;15.67;10.67;;;27.09;100549.55;;;;117753;1187;25575;-62
2022/10/03 10:25:46;;;;;;;;;11.50;8.00;;;27.11;100558.49;;;;117830;1189;25226;-63
2022/10/03 10:28:52;;;;;;;;;8.67;5.67;;;27.04;100555.98;;;;117527;1187;24802;-61
2022/10/03 10:31:53;;;;;;;;;11.00;7.75;;;27.03;100555.25;;;;117504;1189;25169;-61
2022/10/03 10:34:37;;;;;;;;;9.00;6.67;;;27.06;100551.66;;;;117539;1186;25438;-61
2022/10/03 10:37:53;;;;;;;;;10.00;7.67;;;27.06;100552.58;;;;117497;1188;24989;-62
2022/10/03 10:40:55;;;;;;;;;11.00;7.00;;;27.05;100549.59;;;;117444;1188;24878;-61
2022/10/03 10:43:45;;;;;;;;;8.25;4.50;;;27.10;100555.40;;;;117241;1190;25522;-62
2022/10/03 10:46:23;;;;;;;;;6.33;5.33;;;27.11;100557.44;;;;117518;1189;25193;-62
2022/10/03 10:49:25;;;;;;;;;0.00;0.00;;;27.03;100554.90;;;;117488;1189;25397;-62
2022/10/03 10:52:10;;;;;;;;;9.00;6.25;;;26.98;100555.92;;;;117512;1189;25097;-62
2022/10/03 10:55:10;;;;;;;;;9.00;7.25;;;26.94;100551.35;;;;117512;1189;25392;-62
2022/10/03 10:58:15;;;;;;;;;12.67;7.00;;;26.93;100555.37;;;;117503;1187;25203;-62
2022/10/03 11:00:53;;;;;;;;;7.00;6.00;;;26.89;100555.91;;;;117458;1188;24976;-62
2022/10/03 11:03:59;;;;;;;;;10.67;6.33;;;26.84;100551.09;;;;117515;1187;25233;-62
2022/10/03 11:06:58;;;;;;;;;11.00;8.00;;;26.85;100552.55;;;;117517;1187;25265;-62
2022/10/03 11:09:41;;;;;;;;;7.00;4.00;;;26.84;100551.63;;;;117546;1187;25138;-62
2022/10/03 11:12:46;;;;;;;;;8.00;7.00;;;26.82;100552.66;;;;117535;1186;24959;-62
2022/10/03 11:15:57;;;;;;;;;6.00;4.00;;;26.83;100554.09;;;;117693;1188;25164;-63
2022/10/03 11:18:50;;;;;;;;;11.25;6.25;;;26.84;100550.18;;;;117540;1188;25429;-64
2022/10/03 11:21:24;;;;;;;;;9.50;4.75;;;26.82;100549.86;;;;117496;1187;25341;-61
2022/10/03 11:24:10;;;;;;;;;5.00;4.00;;;26.77;100553.64;;;;117761;1187;25150;-61
2022/10/03 11:26:41;;;;;;;;;7.50;4.00;;;26.77;100563.34;;;;117498;1188;25044;-62
2022/10/03 11:29:41;;;;;;;;;10.00;5.25;;;26.75;100567.77;;;;117483;1190;24775;-62
2022/10/03 11:32:38;;;;;;;;;6.33;4.00;;;26.75;100567.27;;;;117432;1188;25643;-61
2022/10/03 11:35:19;;;;;;;;;7.50;4.75;;;26.72;100574.80;;;;117410;1190;25615;-65
2022/10/03 11:38:18;;;;;;;;;6.00;6.00;;;26.68;100571.94;;;;117426;1188;25113;-62
2022/10/03 11:41:18;;;;;;;;;4.75;4.00;;;26.68;100575.12;;;;117458;1190;25973;-61
2022/10/03 11:44:04;;;;;;;;;4.75;4.75;;;26.69;100577.08;;;;117417;1189;24879;-61
2022/10/03 11:46:58;;;;;;;;;5.33;4.00;;;26.67;100575.94;;;;117463;1187;24838;-61
2022/10/03 11:49:41;;;;;;;;;7.25;4.00;;;26.66;100579.02;;;;117452;1190;25596;-62
2022/10/03 11:52:51;;;;;;;;;3.25;2.75;;;26.64;100583.19;;;;117418;1190;25067;-64
2022/10/03 11:55:50;;;;;;;;;8.67;5.00;;;26.66;100584.04;;;;117330;1189;25569;-64
2022/10/03 11:58:37;;;;;;;;;5.75;4.00;;;26.68;100586.61;;;;117500;1188;25064;-62
2022/10/03 12:01:12;;;;;;;;;5.25;4.50;;;26.65;100579.59;;;;117427;1188;25020;-62
2022/10/03 12:04:09;;;;;;;;;5.00;4.25;;;26.61;100570.17;;;;117502;1189;25111;-61
2022/10/03 12:09:50;;;;;;;;;10.00;4.00;;;26.59;100550.67;;;;117449;1190;24810;-62
2022/10/03 12:12:37;;;;;;;;;5.00;3.00;;;26.58;100550.69;;;;117448;1190;25550;-62
2022/10/03 12:15:14;;;;;;;;;3.00;3.00;;;26.57;100547.58;;;;117444;1189;25216;-62
2022/10/03 12:17:52;;;;;;;;;3.50;3.25;;;26.56;100542.81;;;;117470;1190;25651;-62
2022/10/03 12:20:43;;;;;;;;;3.25;2.25;;;26.54;100537.17;;;;117443;1190;25700;-62
2022/10/03 12:23:31;;;;;;;;;4.50;3.00;;;26.57;100537.56;;;;117456;1190;25488;-62
2022/10/03 12:26:03;;;;;;;;;7.00;3.50;;;26.61;100538.70;;;;117460;1190;24906;-62
2022/10/03 12:28:40;;;;;;;;;3.00;3.00;;;26.61;100544.34;;;;117490;1189;25115;-62
2022/10/03 12:31:22;;;;;;;;;3.00;2.25;;;26.58;100549.34;;;;117528;1188;25490;-61
2022/10/03 12:33:50;;;;;;;;;3.75;2.75;;;26.57;100547.64;;;;117783;1188;25677;-61
2022/10/03 12:36:29;;;;;;;;;2.00;1.25;;;26.57;100546.86;;;;117529;1188;25514;-61
2022/10/03 12:39:14;;;;;;;;;1.00;1.00;;;26.55;100544.25;;;;117493;1189;25902;-62
2022/10/03 12:42:05;;;;;;;;;6.25;3.00;;;26.55;100537.09;;;;117490;1188;25275;-62
2022/10/03 12:45:00;;;;;;;;;3.00;2.25;;;26.53;100529.67;;;;117471;1188;24712;-63
2022/10/03 12:47:51;;;;;;;;;3.00;3.00;;;26.52;100534.73;;;;117816;1188;25111;-63
2022/10/03 12:50:55;;;;;;;;;8.00;4.00;;;26.52;100529.18;;;;117812;1186;25064;-62
2022/10/03 12:53:37;;;;;;;;;3.25;3.25;;;26.50;100524.20;;;;117523;1189;25660;-61
2022/10/03 12:56:14;;;;;;;;;2.25;2.25;;;26.48;100518.48;;;;117865;1188;24696;-62
2022/10/03 12:58:59;;;;;;;;;3.00;2.25;;;26.48;100515.70;;;;117494;1189;25257;-61
2022/10/03 13:01:52;;;;;;;;;5.00;3.00;;;26.47;100512.73;;;;117660;1188;25345;-62
2022/10/03 13:04:42;;;;;;;;;4.67;2.67;;;26.47;100509.70;;;;117776;1187;25000;-64
2022/10/03 13:07:51;;;;;;;;;3.00;3.00;;;26.44;100509.61;;;;117492;1188;25300;-62
2022/10/03 13:10:41;;;;;;;;;3.50;1.00;;;26.48;100502.10;;;;117719;1188;26120;-62
2022/10/03 13:13:48;;;;;;;;;4.00;4.00;;;26.50;100497.92;;;;117867;1188;25172;-63
2022/10/03 13:16:32;;;;;;;;;5.00;2.25;;;26.51;100498.89;;;;117755;1186;25241;-61
2022/10/03 13:19:17;;;;;;;;;2.50;2.50;;;26.50;100503.60;;;;117497;1187;25788;-62
2022/10/03 13:22:09;;;;;;;;;3.25;1.75;;;26.47;100506.58;;;;117818;1188;25245;-62
2022/10/03 13:25:03;;;;;;;;;5.00;3.00;;;26.46;100510.14;;;;117501;1188;25285;-62
2022/10/03 13:27:38;;;;;;;;;3.25;3.25;;;26.46;100511.99;;;;117511;1187;25089;-61
2022/10/03 13:30:37;;;;;;;;;8.00;2.00;;;26.48;100502.19;;;;117504;1189;25829;-64
2022/10/03 13:33:35;;;;;;;;;2.00;2.00;;;26.53;100500.98;;;;117537;1188;25239;-65
2022/10/03 13:36:11;;;;;;;;;4.00;4.00;;;26.57;100500.46;;;;117744;1187;25240;-70
2022/10/03 13:39:25;;;;;;;;;4.00;2.00;;;26.55;100494.07;;;;117512;1189;25358;-65
2022/10/03 13:42:12;;;;;;;;;4.50;3.00;;;26.60;100495.23;;;;117482;1188;25547;-68
2022/10/03 13:44:54;;;;;;;;;3.00;1.50;;;26.58;100497.73;;;;117789;1188;25442;-63
2022/10/03 13:47:28;;;;;;;;;2.50;2.50;;;26.51;100494.57;;;;117761;1188;25665;-61
2022/10/03 13:50:32;;;;;;;;;3.00;3.00;;;26.47;100494.79;;;;117493;1188;25128;-60
2022/10/03 13:53:25;;;;;;;;;7.50;3.25;;;26.43;100489.77;;;;117488;1188;24920;-61
2022/10/03 13:56:00;;;;;;;;;7.00;5.00;;;26.37;100492.45;;;;117781;1187;25295;-60
2022/10/03 13:58:49;;;;;;;;;3.75;3.00;;;26.34;100488.08;;;;117402;1190;25469;-60